createdAt,value
2023-02-02T00:01:36.050Z,1.80
2023-02-02T00:04:03.302Z,1.47
2023-02-02T00:06:31.981Z,2.13
2023-02-02T00:09:01.109Z,1.53
2023-02-02T00:11:28.715Z,1.30
2023-02-02T00:13:55.903Z,1.83
2023-02-02T00:16:29.309Z,1.30
2023-02-02T00:19:02.596Z,1.40
2023-02-02T00:21:30.247Z,1.67
2023-02-02T00:23:57.472Z,1.27
2023-02-02T00:26:25.215Z,1.30
2023-02-02T00:28:52.978Z,1.80
2023-02-02T00:31:20.240Z,1.60
2023-02-02T00:33:48.766Z,1.40
2023-02-02T00:36:16.879Z,1.60
2023-02-02T00:38:44.685Z,1.40
2023-02-02T00:41:11.931Z,1.80
2023-02-02T00:43:39.336Z,1.53
2023-02-02T00:46:07.013Z,1.73
2023-02-02T00:48:34.552Z,1.50
2023-02-02T00:51:02.516Z,2.00
2023-02-02T00:53:30.556Z,2.20
2023-02-02T00:55:57.773Z,1.30
2023-02-02T00:58:24.953Z,1.63
2023-02-02T01:00:52.904Z,1.90
2023-02-02T01:03:20.131Z,2.50
2023-02-02T01:05:47.243Z,1.80
2023-02-02T01:08:14.435Z,1.43
2023-02-02T01:10:41.634Z,1.80
2023-02-02T01:13:09.253Z,2.17
2023-02-02T01:15:37.671Z,1.60
2023-02-02T01:18:04.960Z,1.90
2023-02-02T01:20:32.576Z,2.33
2023-02-02T01:22:59.666Z,1.67
2023-02-02T01:25:27.767Z,2.60
2023-02-02T01:27:54.922Z,1.90
2023-02-02T01:30:22.048Z,1.90
2023-02-02T01:32:49.223Z,1.90
2023-02-02T01:35:16.423Z,1.53
2023-02-02T01:37:43.527Z,1.70
2023-02-02T01:40:11.798Z,1.87
2023-02-02T01:42:38.941Z,1.60
2023-02-02T01:45:20.498Z,1.60
2023-02-02T01:47:55.072Z,1.57
2023-02-02T01:50:27.275Z,1.60
2023-02-02T01:52:57.355Z,1.63
2023-02-02T01:55:28.000Z,2.83
2023-02-02T01:57:57.371Z,3.30
2023-02-02T02:00:27.503Z,2.70
2023-02-02T02:03:00.861Z,2.80
2023-02-02T02:05:35.742Z,2.57
2023-02-02T02:08:29.287Z,2.10
2023-02-02T02:10:57.804Z,2.00
2023-02-02T02:13:47.717Z,2.27
2023-02-02T02:16:27.344Z,1.77
2023-02-02T02:19:13.349Z,2.20
2023-02-02T02:22:14.425Z,2.07
2023-02-02T02:25:20.976Z,3.37
2023-02-02T02:28:21.335Z,2.07
2023-02-02T02:30:54.523Z,1.80
2023-02-02T02:33:31.940Z,2.23
2023-02-02T02:36:19.823Z,2.70
2023-02-02T02:39:12.754Z,2.00
2023-02-02T02:41:46.475Z,2.23
2023-02-02T02:44:16.589Z,2.07
2023-02-02T02:46:45.597Z,2.43
2023-02-02T02:49:14.057Z,2.57
2023-02-02T02:51:44.484Z,1.73
2023-02-02T02:54:33.597Z,2.27
2023-02-02T02:57:21.427Z,1.60
2023-02-02T02:59:54.479Z,1.60
2023-02-02T03:02:34.585Z,2.30
2023-02-02T03:05:23.217Z,1.90
2023-02-02T03:08:22.720Z,1.97
2023-02-02T03:10:50.410Z,1.40
2023-02-02T03:13:17.870Z,2.80
2023-02-02T03:15:46.206Z,2.47
2023-02-02T03:18:15.779Z,2.80
2023-02-02T03:20:45.580Z,1.80
2023-02-02T03:23:13.289Z,2.30
2023-02-02T03:25:40.652Z,1.80
2023-02-02T03:28:08.232Z,2.67
2023-02-02T03:30:36.270Z,1.77
2023-02-02T03:33:03.886Z,2.50
2023-02-02T03:35:31.331Z,2.13
2023-02-02T03:37:58.453Z,1.73
2023-02-02T03:40:25.718Z,1.10
2023-02-02T03:42:52.931Z,1.47
2023-02-02T03:45:20.105Z,2.23
2023-02-02T03:47:47.344Z,1.80
2023-02-02T03:50:15.074Z,2.47
2023-02-02T03:52:42.248Z,2.67
2023-02-02T03:55:09.982Z,1.37
2023-02-02T03:57:37.071Z,2.20
2023-02-02T04:00:05.434Z,1.80
2023-02-02T04:02:32.630Z,2.93
2023-02-02T04:04:59.863Z,1.80
2023-02-02T04:07:27.009Z,1.73
2023-02-02T04:09:54.183Z,2.47
2023-02-02T04:12:21.501Z,1.67
2023-02-02T04:14:48.689Z,3.13
2023-02-02T04:17:16.032Z,2.20
2023-02-02T04:19:43.609Z,1.63
2023-02-02T04:22:10.864Z,1.50
2023-02-02T04:24:38.218Z,1.87
2023-02-02T04:27:05.365Z,1.60
2023-02-02T04:29:32.505Z,1.20
2023-02-02T04:31:59.710Z,1.97
2023-02-02T04:34:28.316Z,1.50
2023-02-02T04:36:56.348Z,1.60
2023-02-02T04:39:23.878Z,1.63
2023-02-02T04:41:51.331Z,1.60
2023-02-02T04:44:18.642Z,1.60
2023-02-02T04:46:46.079Z,1.90
2023-02-02T04:49:13.551Z,2.23
2023-02-02T04:51:41.704Z,1.63
2023-02-02T04:54:09.082Z,1.57
2023-02-02T04:56:36.497Z,1.57
2023-02-02T04:59:03.825Z,1.80
2023-02-02T05:01:31.329Z,1.87
2023-02-02T05:03:58.956Z,1.63
2023-02-02T05:06:26.153Z,1.83
2023-02-02T05:08:53.318Z,1.33
2023-02-02T05:11:22.875Z,2.00
2023-02-02T05:13:52.869Z,2.60
2023-02-02T05:16:22.771Z,1.87
2023-02-02T05:18:56.955Z,1.43
2023-02-02T05:21:24.566Z,1.27
2023-02-02T05:23:52.104Z,1.80
2023-02-02T05:26:24.108Z,2.40
2023-02-02T05:28:52.039Z,1.73
2023-02-02T05:31:20.459Z,1.73
2023-02-02T05:33:47.818Z,2.70
2023-02-02T05:36:15.639Z,1.43
2023-02-02T05:38:43.217Z,1.93
2023-02-02T05:41:10.443Z,2.27
2023-02-02T05:43:37.754Z,2.27
2023-02-02T05:46:05.363Z,2.57
2023-02-02T05:48:32.799Z,2.00
2023-02-02T05:51:14.719Z,2.20
2023-02-02T05:53:42.489Z,2.43
2023-02-02T05:56:09.645Z,2.10
2023-02-02T05:58:37.149Z,1.93
2023-02-02T06:01:04.489Z,2.10
2023-02-02T06:03:31.885Z,2.00
2023-02-02T06:05:59.286Z,3.07
2023-02-02T06:08:26.567Z,2.40
2023-02-02T06:10:54.451Z,1.83
2023-02-02T06:13:22.708Z,2.50
2023-02-02T06:15:49.901Z,1.77
2023-02-02T06:18:17.139Z,2.07
2023-02-02T06:20:44.608Z,1.93
2023-02-02T06:23:11.746Z,1.30
2023-02-02T06:25:38.907Z,1.17
2023-02-02T06:28:06.400Z,2.00
2023-02-02T06:30:33.577Z,1.73
2023-02-02T06:33:01.113Z,1.77
2023-02-02T06:35:28.399Z,1.63
2023-02-02T06:37:55.637Z,1.60
2023-02-02T06:40:22.833Z,1.70
2023-02-02T06:42:57.520Z,1.47
2023-02-02T06:45:25.872Z,1.40
2023-02-02T06:47:53.808Z,2.53
2023-02-02T06:50:21.452Z,1.40
2023-02-02T06:52:53.073Z,1.57
2023-02-02T06:55:20.473Z,2.27
2023-02-02T06:57:47.844Z,1.73
2023-02-02T07:00:15.664Z,1.90
2023-02-02T07:02:47.456Z,2.30
2023-02-02T07:05:15.054Z,1.77
2023-02-02T07:07:42.161Z,1.83
2023-02-02T07:10:10.012Z,1.80
2023-02-02T07:12:57.222Z,1.70
2023-02-02T07:15:24.779Z,1.50
2023-02-02T07:17:52.169Z,1.97
2023-02-02T07:20:19.519Z,1.70
2023-02-02T07:22:46.698Z,2.00
2023-02-02T07:25:13.913Z,2.60
2023-02-02T07:27:41.050Z,1.80
2023-02-02T07:30:09.402Z,4.37
2023-02-02T07:32:36.575Z,4.60
2023-02-02T07:35:03.878Z,1.80
2023-02-02T07:37:31.299Z,1.40
2023-02-02T07:39:58.645Z,1.57
2023-02-02T07:42:25.976Z,1.30
2023-02-02T07:44:53.148Z,1.57
2023-02-02T07:47:20.381Z,1.80
2023-02-02T07:49:47.580Z,1.20
2023-02-02T07:52:15.865Z,1.20
2023-02-02T07:54:43.173Z,1.87
2023-02-02T07:57:10.970Z,9.37
2023-02-02T07:59:38.107Z,8.00
2023-02-02T08:02:05.493Z,6.70
2023-02-02T08:04:34.539Z,3.63
2023-02-02T08:07:01.917Z,5.87
2023-02-02T08:09:29.082Z,9.77
2023-02-02T08:12:01.808Z,3.37
2023-02-02T08:14:29.868Z,1.83
2023-02-02T08:16:56.996Z,1.30
2023-02-02T08:19:24.188Z,1.50
2023-02-02T08:21:51.760Z,1.37
2023-02-02T08:24:40.708Z,1.80
2023-02-02T08:27:08.593Z,1.73
2023-02-02T08:29:37.125Z,1.93
2023-02-02T08:32:05.031Z,1.80
2023-02-02T08:34:35.117Z,1.80
2023-02-02T08:37:02.235Z,1.80
2023-02-02T08:39:29.462Z,1.70
2023-02-02T08:41:56.885Z,1.87
2023-02-02T08:44:24.777Z,3.03
2023-02-02T08:46:54.495Z,1.97
2023-02-02T08:49:21.937Z,2.20
2023-02-02T08:51:49.165Z,1.83
2023-02-02T08:54:16.324Z,2.33
2023-02-02T08:56:43.546Z,1.70
2023-02-02T08:59:10.779Z,4.00
2023-02-02T09:01:37.947Z,2.90
2023-02-02T09:04:13.642Z,2.20
2023-02-02T09:06:41.939Z,2.67
2023-02-02T09:09:14.172Z,2.47
2023-02-02T09:11:42.214Z,1.70
2023-02-02T09:14:10.996Z,2.10
2023-02-02T09:16:38.193Z,5.17
2023-02-02T09:19:05.894Z,2.70
2023-02-02T09:21:37.700Z,3.90
2023-02-02T09:24:10.251Z,3.00
2023-02-02T09:26:39.423Z,2.57
2023-02-02T09:29:08.658Z,1.97
2023-02-02T09:31:37.722Z,5.83
2023-02-02T09:34:07.165Z,4.23
2023-02-02T09:36:34.715Z,3.93
2023-02-02T09:39:02.186Z,2.47
2023-02-02T09:41:38.625Z,3.40
2023-02-02T09:44:19.523Z,2.40
2023-02-02T09:47:02.084Z,2.10
2023-02-02T09:49:41.708Z,3.30
2023-02-02T09:52:32.059Z,1.97
2023-02-02T09:55:35.152Z,2.00
2023-02-02T09:58:27.519Z,1.80
2023-02-02T10:01:03.321Z,2.53
2023-02-02T10:03:45.718Z,2.33
2023-02-02T10:06:35.900Z,1.53
2023-02-02T10:09:34.404Z,2.00
2023-02-02T10:12:21.435Z,2.30
2023-02-02T10:15:17.308Z,1.60
2023-02-02T10:17:54.505Z,1.70
2023-02-02T10:20:34.207Z,3.13
2023-02-02T10:23:14.088Z,1.93
2023-02-02T10:26:07.330Z,1.50
2023-02-02T10:28:58.673Z,1.70
2023-02-02T10:31:46.395Z,1.77
2023-02-02T10:34:26.362Z,1.57
2023-02-02T10:37:00.470Z,1.40
2023-02-02T10:40:05.076Z,2.67
2023-02-02T10:43:14.320Z,2.03
2023-02-02T10:45:44.047Z,1.40
2023-02-02T10:48:30.477Z,1.80
2023-02-02T10:51:01.031Z,1.50
2023-02-02T10:53:33.426Z,1.80
2023-02-02T10:56:09.001Z,2.20
2023-02-02T10:58:39.392Z,1.83
2023-02-02T11:01:11.688Z,4.20
2023-02-02T11:03:40.508Z,3.40
2023-02-02T11:06:27.482Z,4.27
2023-02-02T11:08:59.773Z,5.40
2023-02-02T11:11:34.562Z,3.20
2023-02-02T11:14:10.768Z,3.43
2023-02-02T11:16:43.558Z,1.90
2023-02-02T11:19:17.541Z,3.43
2023-02-02T11:21:56.598Z,1.30
2023-02-02T11:24:31.782Z,2.00
2023-02-02T11:27:13.920Z,1.90
2023-02-02T11:29:41.023Z,2.70
2023-02-02T11:32:38.204Z,2.60
2023-02-02T11:35:08.704Z,1.60
2023-02-02T11:37:52.813Z,2.53
2023-02-02T11:40:35.300Z,1.60
2023-02-02T11:43:06.837Z,1.70
2023-02-02T11:45:40.552Z,2.07
2023-02-02T11:48:16.124Z,1.90
2023-02-02T11:50:49.074Z,2.40
2023-02-02T11:53:27.004Z,1.53
2023-02-02T11:55:55.416Z,1.30
2023-02-02T11:58:27.832Z,1.37
2023-02-02T12:01:03.943Z,1.30
2023-02-02T12:03:41.160Z,1.57
2023-02-02T12:06:34.345Z,1.90
2023-02-02T12:09:10.573Z,2.73
2023-02-02T12:12:03.216Z,4.17
2023-02-02T12:14:36.620Z,3.93
2023-02-02T12:17:18.761Z,10.70
2023-02-02T12:20:22.171Z,4.40
2023-02-02T12:22:55.325Z,6.10
2023-02-02T12:25:41.533Z,3.60
2023-02-02T12:28:25.084Z,11.23
2023-02-02T12:31:10.657Z,45.37
2023-02-02T12:33:55.691Z,73.60
2023-02-02T12:36:26.744Z,13.17
2023-02-02T12:39:07.049Z,27.93
2023-02-02T12:42:04.475Z,22.90
2023-02-02T12:44:55.991Z,40.63
2023-02-02T12:47:34.095Z,27.33
2023-02-02T12:50:21.637Z,42.90
2023-02-02T12:53:07.641Z,5.33
2023-02-02T12:56:01.468Z,3.67
2023-02-02T12:58:38.566Z,2.93
2023-02-02T13:01:34.936Z,3.67
2023-02-02T13:07:28.513Z,7.83
2023-02-02T13:10:14.108Z,2.90
2023-02-02T13:13:08.733Z,2.57
2023-02-02T13:15:46.716Z,2.87
2023-02-02T13:18:29.892Z,2.63
2023-02-02T13:21:03.480Z,2.40
2023-02-02T13:23:41.437Z,2.47
2023-02-02T13:26:18.431Z,2.10
2023-02-02T13:28:48.395Z,3.40
2023-02-02T13:31:30.670Z,5.27
2023-02-02T13:34:19.607Z,3.27
2023-02-02T13:36:55.120Z,2.10
2023-02-02T13:39:40.385Z,1.90
2023-02-02T13:42:20.195Z,3.00
2023-02-02T13:44:54.112Z,2.50
2023-02-02T13:47:29.404Z,2.50
2023-02-02T13:50:04.763Z,3.80
2023-02-02T13:52:56.013Z,3.93
2023-02-02T13:55:58.238Z,15.57
2023-02-02T13:59:07.492Z,12.73
2023-02-02T14:01:35.459Z,6.67
2023-02-02T14:04:02.704Z,3.87
2023-02-02T14:06:49.716Z,1.87
2023-02-02T14:09:19.854Z,2.90
2023-02-02T14:11:57.463Z,3.23
2023-02-02T14:14:38.250Z,2.30
2023-02-02T14:17:34.036Z,1.97
2023-02-02T14:20:03.770Z,2.77
2023-02-02T14:22:45.629Z,2.83
2023-02-02T14:25:33.933Z,1.90
2023-02-02T14:28:25.058Z,2.43
2023-02-02T14:31:21.449Z,2.60
2023-02-02T14:33:49.415Z,2.87
2023-02-02T14:36:17.711Z,2.57
2023-02-02T14:39:04.936Z,3.00
2023-02-02T14:42:21.599Z,2.90
2023-02-02T14:45:13.261Z,2.40
2023-02-02T14:47:49.014Z,2.97
2023-02-02T14:50:36.376Z,2.33
2023-02-02T14:53:11.544Z,3.13
2023-02-02T14:56:03.706Z,2.60
2023-02-02T14:58:57.738Z,3.10
2023-02-02T15:01:28.775Z,7.73
2023-02-02T15:04:16.953Z,6.20
2023-02-02T15:06:45.019Z,2.83
2023-02-02T15:09:22.513Z,3.10
2023-02-02T15:12:04.508Z,2.73
2023-02-02T15:15:05.588Z,1.87
2023-02-02T15:17:42.132Z,2.20
2023-02-02T15:20:14.519Z,2.63
2023-02-02T15:22:49.209Z,2.30
2023-02-02T15:25:41.141Z,2.23
2023-02-02T15:28:18.297Z,2.20
2023-02-02T15:30:51.486Z,2.80
2023-02-02T15:33:31.767Z,2.40
2023-02-02T15:36:03.945Z,3.07
2023-02-02T15:38:37.525Z,2.80
2023-02-02T15:41:16.804Z,2.80
2023-02-02T15:43:44.104Z,2.00
2023-02-02T15:46:24.593Z,3.03
2023-02-02T15:49:35.834Z,2.33
2023-02-02T15:52:15.157Z,1.97
2023-02-02T15:54:54.699Z,2.03
2023-02-02T15:57:33.878Z,2.50
2023-02-02T16:00:22.223Z,2.00
2023-02-02T16:02:53.857Z,2.87
2023-02-02T16:05:25.754Z,2.53
2023-02-02T16:08:05.052Z,3.77
2023-02-02T16:10:33.438Z,4.37
2023-02-02T16:13:00.601Z,4.30
2023-02-02T16:15:32.060Z,8.30
2023-02-02T16:18:08.159Z,9.17
2023-02-02T16:20:37.653Z,4.57
2023-02-02T16:23:11.296Z,3.83
2023-02-02T16:25:48.168Z,3.67
2023-02-02T16:28:21.625Z,3.43
2023-02-02T16:30:51.895Z,3.03
2023-02-02T16:33:36.263Z,4.03
2023-02-02T16:36:24.559Z,3.63
2023-02-02T16:38:53.835Z,4.63
2023-02-02T16:41:34.628Z,4.37
2023-02-02T16:44:29.895Z,3.87
2023-02-02T16:46:57.630Z,3.67
2023-02-02T16:49:27.036Z,3.90
2023-02-02T16:52:15.080Z,9.97
2023-02-02T16:54:50.859Z,16.67
2023-02-02T16:57:22.927Z,5.87
2023-02-02T16:59:55.452Z,3.10
2023-02-02T17:02:45.221Z,2.90
2023-02-02T17:05:33.145Z,2.83
2023-02-02T17:08:07.598Z,2.80
2023-02-02T17:10:37.124Z,3.17
2023-02-02T17:13:33.796Z,2.90
2023-02-02T17:16:01.810Z,3.20
2023-02-02T17:18:32.899Z,3.53
2023-02-02T17:21:07.893Z,3.03
2023-02-02T17:23:36.832Z,3.80
2023-02-02T17:26:06.672Z,3.87
2023-02-02T17:28:34.363Z,4.83
2023-02-02T17:31:06.121Z,3.90
2023-02-02T17:33:35.042Z,4.30
2023-02-02T17:36:03.086Z,4.50
2023-02-02T17:38:30.725Z,3.43
2023-02-02T17:41:01.639Z,3.30
2023-02-02T17:43:30.287Z,3.00
2023-02-02T17:45:58.012Z,2.60
2023-02-02T17:48:25.643Z,2.27
2023-02-02T17:50:53.034Z,2.23
2023-02-02T17:53:24.301Z,2.80
2023-02-02T17:55:54.340Z,2.93
2023-02-02T17:58:24.755Z,2.20
2023-02-02T18:00:59.324Z,2.80
2023-02-02T18:03:34.373Z,2.50
2023-02-02T18:06:02.771Z,1.60
2023-02-02T18:08:31.967Z,1.57
2023-02-02T18:10:59.787Z,1.50
2023-02-02T18:13:27.525Z,1.57
2023-02-02T18:15:56.452Z,2.47
2023-02-02T18:18:24.188Z,3.10
2023-02-02T18:20:51.727Z,2.97
2023-02-02T18:23:20.184Z,11.37
2023-02-02T18:25:48.064Z,8.93
2023-02-02T18:28:17.812Z,2.97
2023-02-02T18:30:47.371Z,2.97
2023-02-02T18:33:18.080Z,2.70
2023-02-02T18:35:47.570Z,2.13
2023-02-02T18:38:15.017Z,2.53
2023-02-02T18:40:42.508Z,2.00
2023-02-02T18:43:10.245Z,2.27
2023-02-02T18:45:37.437Z,2.27
2023-02-02T18:48:04.716Z,2.50
2023-02-02T18:50:32.016Z,2.20
2023-02-02T18:52:59.374Z,2.50
2023-02-02T18:55:26.921Z,2.10
2023-02-02T18:57:54.587Z,2.03
2023-02-02T19:00:22.360Z,1.83
2023-02-02T19:02:50.548Z,1.93
2023-02-02T19:05:36.446Z,2.30
2023-02-02T19:08:06.018Z,2.10
2023-02-02T19:10:33.335Z,2.43
2023-02-02T19:13:20.714Z,3.00
2023-02-02T19:15:49.347Z,2.50
2023-02-02T19:18:22.820Z,2.30
2023-02-02T19:20:51.658Z,2.03
2023-02-02T19:23:23.383Z,2.43
2023-02-02T19:25:54.398Z,2.57
2023-02-02T19:28:30.219Z,2.43
2023-02-02T19:31:00.059Z,2.57
2023-02-02T19:33:43.337Z,2.70
2023-02-02T19:36:18.225Z,2.73
2023-02-02T19:38:47.301Z,2.93
2023-02-02T19:41:23.686Z,2.77
2023-02-02T19:44:11.003Z,3.00
2023-02-02T19:46:44.248Z,3.00
2023-02-02T19:49:32.436Z,2.80
2023-02-02T19:52:01.588Z,3.40
2023-02-02T19:54:38.656Z,2.73
2023-02-02T19:57:21.433Z,2.80
2023-02-02T19:59:50.622Z,2.83
2023-02-02T20:02:30.446Z,2.60
2023-02-02T20:05:25.231Z,2.50
2023-02-02T20:08:14.161Z,2.37
2023-02-02T20:10:43.912Z,2.77
2023-02-02T20:13:23.308Z,2.77
2023-02-02T20:16:03.721Z,2.57
2023-02-02T20:18:40.368Z,3.60
2023-02-02T20:21:19.941Z,1.90
2023-02-02T20:23:47.651Z,2.67
2023-02-02T20:26:22.284Z,2.80
2023-02-02T20:28:50.130Z,2.77
2023-02-02T20:31:20.172Z,3.00
2023-02-02T20:33:50.697Z,2.60
2023-02-02T20:36:32.461Z,2.87
2023-02-02T20:39:16.770Z,2.37
2023-02-02T20:41:44.151Z,2.03
2023-02-02T20:44:12.032Z,1.47
2023-02-02T20:46:39.563Z,1.03
2023-02-02T20:49:06.975Z,1.10
2023-02-02T20:51:34.095Z,0.80
2023-02-02T20:54:01.453Z,1.30
2023-02-02T20:56:28.576Z,1.73
2023-02-02T20:58:55.811Z,1.43
2023-02-02T21:01:23.710Z,2.00
2023-02-02T21:03:51.168Z,2.30
2023-02-02T21:06:18.545Z,2.80
2023-02-02T21:08:47.905Z,2.87
2023-02-02T21:11:15.126Z,2.60
2023-02-02T21:13:42.321Z,2.57
2023-02-02T21:16:09.842Z,2.37
2023-02-02T21:18:36.927Z,2.60
2023-02-02T21:21:04.680Z,2.50
2023-02-02T21:23:31.821Z,2.50
2023-02-02T21:25:58.964Z,2.90
2023-02-02T21:28:26.374Z,2.70
2023-02-02T21:30:53.636Z,2.60
2023-02-02T21:33:20.831Z,3.50
2023-02-02T21:35:48.459Z,3.00
2023-02-02T21:38:16.685Z,3.73
2023-02-02T21:40:43.949Z,2.93
2023-02-02T21:43:18.895Z,4.20
2023-02-02T21:45:51.468Z,3.60
2023-02-02T21:48:33.002Z,3.20
2023-02-02T21:51:23.223Z,3.90
2023-02-02T21:53:50.719Z,3.60
2023-02-02T21:56:38.440Z,3.43
2023-02-02T21:59:16.455Z,3.57
2023-02-02T22:01:45.157Z,3.63
2023-02-02T22:04:23.645Z,3.70
2023-02-02T22:07:02.269Z,3.30
2023-02-02T22:09:39.331Z,3.70
2023-02-02T22:12:18.069Z,4.20
2023-02-02T22:14:46.793Z,3.90
2023-02-02T22:17:40.913Z,3.50
2023-02-02T22:20:28.919Z,5.00
2023-02-02T22:22:56.493Z,3.17
2023-02-02T22:25:33.577Z,3.30
2023-02-02T22:28:09.955Z,2.37
2023-02-02T22:30:40.010Z,3.50
2023-02-02T22:33:09.337Z,3.97
2023-02-02T22:35:37.381Z,4.87
2023-02-02T22:38:05.722Z,4.13
2023-02-02T22:40:33.078Z,3.27
2023-02-02T22:43:04.542Z,3.70
2023-02-02T22:45:31.972Z,3.87
2023-02-02T22:47:59.994Z,3.73
2023-02-02T22:50:30.208Z,3.97
2023-02-02T22:52:57.942Z,3.90
2023-02-02T22:55:25.606Z,3.23
2023-02-02T22:57:53.275Z,3.40
2023-02-02T23:00:26.822Z,3.13
2023-02-02T23:02:55.253Z,3.53
2023-02-02T23:05:23.838Z,3.37
2023-02-02T23:07:51.382Z,3.43
2023-02-02T23:10:22.518Z,3.30
2023-02-02T23:12:50.583Z,2.77
2023-02-02T23:15:19.444Z,2.47
2023-02-02T23:17:46.984Z,3.97
2023-02-02T23:20:15.590Z,3.33
2023-02-02T23:22:42.797Z,3.07
2023-02-02T23:25:10.983Z,4.43
2023-02-02T23:27:38.502Z,3.37
2023-02-02T23:30:07.651Z,3.20
2023-02-02T23:32:35.519Z,4.90
2023-02-02T23:35:03.385Z,3.60
2023-02-02T23:37:30.798Z,4.07
2023-02-02T23:39:57.992Z,3.90
2023-02-02T23:42:25.914Z,3.60
2023-02-02T23:44:53.086Z,3.73
2023-02-02T23:47:20.490Z,3.47
2023-02-02T23:49:47.656Z,3.50
2023-02-02T23:52:15.225Z,3.70
2023-02-02T23:54:43.199Z,3.30
2023-02-02T23:57:10.599Z,3.40
2023-02-02T23:59:38.003Z,3.87
